• Join FlightAware (Why Join?)
  • Login
  • US Flag 
11:22PM EDT


 

Airport Tracker/Info


-or-


 

Live Flight TrackerFlight Track Log ✈ N885WT ✈ 16-Jul-2013 ✈ PANC - RKSI / ICN

Flight Track Log - Related Links

Times and Time Zones

All times are in EDT time to prevent confusion due to time zone crossing. See the N885WT flight status page for this flight to view local times or setup timezone preferences in your user account.

Time Position Orientation Groundspeed Altitude Reporting Facility
EDT Latitude Longitude Course Direction KTS MPH feet Rate Location/Type
08:02AM 61.2333 -150.2167 283° West 260 299 5,800  Level Anchorage Center
08:03AM 61.2333 -150.3833 270° West 270 311 9,400 2,820 Climbing Anchorage Center
08:04AM 61.2333 -150.5500 270° West 300 345 11,500 2,040 Climbing Anchorage Center
08:05AM 61.2500 -150.7333 281° West 340 391 13,500 2,280 Climbing Anchorage Center
08:06AM 61.2500 -150.9333 270° West 360 414 16,100 2,340 Climbing Anchorage Center
08:07AM 61.2667 -151.8213 270° West  Level FlightAware Approximate
08:07AM 61.2500 -151.1333 270° West 360 414 18,300  Level Anchorage Center
08:08AM 61.2761 -152.0842 283° West  Level FlightAware Approximate
08:08AM 61.2667 -151.3500 279° West 380 437 20,700  Level Anchorage Center
08:09AM 61.2667 -151.5667 270° West 380 437 22,700 1,980 Climbing Anchorage Center
08:10AM 61.2667 -151.7833 270° West 390 449 24,800 1,980 Climbing Anchorage Center
08:11AM 61.2833 -152.0500 278° West 390 449 26,700 1,680 Climbing Anchorage Center
08:12AM 61.2833 -152.2833 270° West 400 460 28,200 1,380 Climbing Anchorage Center
08:13AM 61.2833 -152.5333 270° West 410 472 29,600 1,500 Climbing Anchorage Center
08:14AM 61.2833 -152.7667 270° West 420 483 31,300 1,980 Climbing Anchorage Center
08:15AM 61.2833 -153.0167 270° West 410 472 33,600 1,740 Climbing Anchorage Center
08:16AM 61.2833 -153.2500 270° West 410 472 34,900 1,500 Climbing Anchorage Center
08:17AM 61.2833 -153.4667 270° West 410 472 36,600 1,740 Climbing Anchorage Center
08:18AM 61.2833 -153.7000 270° West 400 460 38,500 1,260 Climbing Anchorage Center
08:19AM 61.2667 -153.9167 261° West 380 437 39,200 540 Climbing Anchorage Center
08:20AM 61.2667 -154.1500 270° West 400 460 39,700 360 Climbing Anchorage Center
08:21AM 61.2667 -154.4000 270° West 410 472 40,000 120 Climbing Anchorage Center
08:22AM 61.2667 -154.6333 270° West 430 495 40,000  Level Anchorage Center
08:23AM 61.2667 -154.8833 270° West 420 483 40,000  Level Anchorage Center
08:24AM 61.2667 -155.1333 270° West 420 483 40,000  Level Anchorage Center
08:25AM 61.2500 -155.3667 262° West 430 495 40,000  Level Anchorage Center
08:27AM 61.2500 -155.6667 270° West 430 495 40,000  Level Anchorage Center
08:28AM 61.2500 -155.9167 270° West 420 483 40,000  Level Anchorage Center
08:29AM 61.2500 -156.1500 270° West 430 495 40,000  Level Anchorage Center
08:30AM 61.2500 -156.4000 270° West 420 483 40,000  Level Anchorage Center
08:31AM 61.2500 -156.6500 270° West 420 483 40,000  Level Anchorage Center
08:32AM 61.2333 -156.8833 262° West 410 472 40,000  Level Anchorage Center
08:33AM 61.2500 -157.1333 278° West 410 472 40,000  Level Anchorage Center
08:34AM 61.2500 -157.3833 270° West 420 483 40,000  Level Anchorage Center
08:35AM 61.2500 -157.6167 270° West 410 472 40,000  Level Anchorage Center
08:36AM 61.2500 -157.8667 270° West 420 483 40,000  Level Anchorage Center
08:37AM 61.2333 -158.1000 262° West 420 483 40,000  Level Anchorage Center
08:38AM 61.2333 -158.3500 270° West 420 483 40,000  Level Anchorage Center
08:39AM 61.2333 -158.6000 270° West 420 483 40,000  Level Anchorage Center
08:40AM 61.2333 -158.8333 270° West 420 483 40,000  Level Anchorage Center
08:41AM 61.2333 -159.0833 270° West 430 495 40,000  Level Anchorage Center
08:42AM 61.2333 -159.3333 270° West 420 483 40,000  Level Anchorage Center
08:43AM 61.2167 -159.5833 262° West 420 483 40,000  Level Anchorage Center
08:44AM 61.2167 -159.8167 270° West 420 483 40,000  Level Anchorage Center
08:45AM 61.2167 -160.0667 270° West 430 495 40,000  Level Anchorage Center
08:46AM 61.2000 -160.3333 263° West 430 495 40,000  Level Anchorage Center
08:47AM 61.2000 -160.5833 270° West 430 495 40,000  Level Anchorage Center
08:48AM 61.1833 -160.8500 263° West 410 472 40,000  Level Anchorage Center
08:49AM 61.1833 -161.1000 270° West 430 495 40,000  Level Anchorage Center
08:50AM 61.1667 -161.3500 262° West 430 495 40,000  Level Anchorage Center
08:51AM 61.1667 -161.6000 270° West 430 495 40,000  Level Anchorage Center
08:52AM 61.1500 -161.8500 262° West 430 495 40,000  Level Anchorage Center
08:53AM 61.1500 -162.1000 270° West 430 495 40,000  Level Anchorage Center
08:54AM 61.1333 -162.3500 262° West 440 506 40,000  Level Anchorage Center
08:55AM 61.1333 -162.6167 270° West 440 506 40,000  Level Anchorage Center
08:56AM 61.1167 -162.8667 262° West 440 506 40,000  Level Anchorage Center
08:57AM 61.1000 -163.1167 262° West 430 495 40,000  Level Anchorage Center
08:58AM 61.0667 -163.3500 254° West 430 495 40,000  Level Anchorage Center
08:59AM 61.0167 -163.6000 248° West 430 495 40,000  Level Anchorage Center
09:00AM 60.9833 -163.8333 254° West 430 495 40,000  Level Anchorage Center
09:01AM 60.9500 -164.0833 255° West 430 495 40,000  Level Anchorage Center
09:02AM 60.9167 -164.3167 254° West 430 495 40,000  Level Anchorage Center
09:03AM 60.8833 -164.5667 255° West 440 506 40,000  Level Anchorage Center
09:04AM 60.8500 -164.8000 254° West 430 495 40,000  Level Anchorage Center
09:05AM 60.8000 -165.0333 246° West 430 495 40,000  Level Anchorage Center
09:06AM 60.7667 -165.3333 257° West 440 506 40,000  Level Anchorage Center
09:07AM 60.7167 -165.5667 246° West 430 495 40,000  Level Anchorage Center
09:08AM 60.6833 -165.8000 254° West 440 506 40,000  Level Anchorage Center
09:09AM 60.6500 -166.0333 254° West 440 506 40,000  Level Anchorage Center
09:10AM 60.6000 -166.2667 247° West 430 495 40,000  Level Anchorage Center
09:11AM 60.5667 -166.5167 255° West 430 495 40,000  Level Anchorage Center
09:12AM 60.5333 -166.7500 254° West 440 506 40,000  Level Anchorage Center
09:13AM 60.4833 -166.9833 247° West 440 506 40,000  Level Anchorage Center
09:14AM 60.4500 -167.2333 255° West 440 506 40,000  Level Anchorage Center
09:15AM 60.4000 -167.4667 247° West 450 518 40,000  Level Anchorage Center
09:16AM 60.3667 -167.7000 254° West 440 506 40,000  Level Anchorage Center
09:17AM 60.3333 -167.8833 250° West 450 518 40,000  Level Anchorage Center
09:18AM 60.2833 -168.1167 247° West 440 506 40,000  Level Anchorage Center
09:19AM 60.2500 -168.3500 254° West 430 495 40,000  Level Anchorage Center
09:20AM 60.2000 -168.5833 247° West 430 495 40,000  Level Anchorage Center
09:21AM 60.1500 -168.8167 247° West 440 506 40,000  Level Anchorage Center
09:22AM 60.1167 -169.0500 254° West 440 506 40,000  Level Anchorage Center
09:23AM 60.0667 -169.2833 247° West 440 506 40,000  Level Anchorage Center
09:24AM 60.0167 -169.5167 247° West 440 506 40,000  Level Anchorage Center
09:25AM 59.9667 -169.7333 245° Southwest 440 506 40,000  Level Anchorage Center
09:26AM 59.9333 -169.9833 255° West 450 518 40,000  Level Anchorage Center
09:27AM 59.8833 -170.2167 247° West 450 518 40,000  Level Anchorage Center
09:28AM 59.8333 -170.4500 247° West 450 518 40,000  Level Anchorage Center
09:29AM 59.7833 -170.6833 247° West 450 518 40,000  Level Anchorage Center
09:30AM 59.7333 -170.9167 247° West 450 518 40,000  Level Anchorage Center
09:31AM 59.7000 -171.1333 253° West 440 506 40,000  Level Anchorage Center
09:32AM 59.6500 -171.3667 247° West 450 518 40,000  Level Anchorage Center
09:33AM 59.6000 -171.6000 247° West 450 518 40,000  Level Anchorage Center
09:34AM 59.5500 -171.8333 247° West 450 518 40,000  Level Anchorage Center
09:35AM 59.5000 -172.0500 246° West 450 518 40,000  Level Anchorage Center
09:36AM 59.4500 -172.2833 247° West 440 506 40,000  Level Anchorage Center
09:37AM 59.4167 -172.5000 253° West 440 506 40,000  Level Anchorage Center
09:38AM 59.3667 -172.7333 247° West 440 506 40,000  Level Anchorage Center
09:39AM 59.3167 -172.9667 247° West 450 518 40,000  Level Anchorage Center
09:40AM 59.2667 -173.1833 246° West 450 518 40,000  Level Anchorage Center
09:41AM 59.2167 -173.4167 247° West 450 518 40,000  Level Anchorage Center
09:42AM 59.1667 -173.6500 247° West 450 518 40,000  Level Anchorage Center
09:43AM 59.1167 -173.8833 247° West 460 529 40,000  Level Anchorage Center
09:44AM 59.0667 -174.1000 246° West 450 518 40,000  Level Anchorage Center
09:45AM 59.0167 -174.3333 247° West 460 529 40,000  Level Anchorage Center
09:46AM 58.9667 -174.5667 248° West 460 529 40,000  Level Anchorage Center
09:47AM 58.9167 -174.8000 248° West 470 541 40,000  Level Anchorage Center
09:48AM 58.8667 -175.0333 248° West 470 541 40,000  Level Anchorage Center
09:49AM 58.8167 -175.2500 246° West 460 529 40,000  Level Anchorage Center
09:50AM 58.7667 -175.4833 248° West 470 541 40,000  Level Anchorage Center
09:51AM 58.7000 -175.7167 241° Southwest 460 529 40,000  Level Anchorage Center
09:52AM 58.6500 -175.9333 246° West 460 529 40,000  Level Anchorage Center
09:53AM 58.6000 -176.1667 248° West 470 541 40,000  Level Anchorage Center
09:54AM 58.5500 -176.4000 248° West 460 529 40,000  Level Anchorage Center
09:55AM 58.4833 -176.6167 240° Southwest 470 541 40,000  Level Anchorage Center
09:56AM 58.4333 -176.8500 248° West 470 541 40,000  Level Anchorage Center
09:57AM 58.3833 -177.0833 248° West 470 541 40,000  Level Anchorage Center
09:58AM 58.3167 -177.3000 240° Southwest 460 529 40,000  Level Anchorage Center
09:59AM 58.2667 -177.5167 246° West 470 541 40,000  Level Anchorage Center
10:00AM 58.2000 -177.7833 245° Southwest 450 518 40,000  Level Anchorage Center
10:02AM 58.1667 -177.9500 244° Southwest 471 542 40,000  Level Anchorage Center
10:08AM 57.7646 -179.4635 243° Southwest 471 542 40,000  Level FlightAware Transoceanic
10:09AM 57.7058 -179.6769 243° Southwest 471 542 40,000  Level FlightAware Transoceanic
10:10AM 57.6465 -179.8897 242° Southwest 471 542 40,000  Level FlightAware Transoceanic
10:11AM 57.5869 179.8983 242° Southwest 471 542 40,000  Level FlightAware Transoceanic
10:12AM 57.5270 179.6869 242° Southwest 471 542 40,000  Level FlightAware Transoceanic
10:13AM 57.4667 179.4763 242° Southwest 471 542 40,000  Level FlightAware Transoceanic
10:14AM 57.4060 179.2663 242° Southwest 471 542 40,000  Level FlightAware Transoceanic
10:15AM 57.3450 179.0571 242° Southwest 471 542 40,000  Level FlightAware Transoceanic
10:16AM 57.2836 178.8485 241° Southwest 471 542 40,000  Level FlightAware Transoceanic
10:17AM 57.2220 178.6406 241° Southwest 471 542 40,000  Level FlightAware Transoceanic
10:18AM 57.1599 178.4335 241° Southwest 471 542 40,000  Level FlightAware Transoceanic
10:19AM 57.0975 178.2270 241° Southwest 471 542 40,000  Level FlightAware Transoceanic
10:20AM 57.0348 178.0212 241° Southwest 471 542 40,000  Level FlightAware Transoceanic
10:21AM 56.9718 177.8161 240° Southwest 471 542 40,000  Level FlightAware Transoceanic
10:22AM 56.9084 177.6117 240° Southwest 471 542 40,000  Level FlightAware Transoceanic
10:23AM 56.8447 177.4080 240° Southwest 471 542 40,000  Level FlightAware Transoceanic
10:23AM 56.8333 177.3500 240° Southwest 476 548 40,000  Level Anchorage Center
10:24AM 56.7806 177.2050 240° Southwest 471 542 40,000  Level FlightAware Transoceanic
10:25AM 56.7163 177.0027 240° Southwest 471 542 40,000  Level FlightAware Transoceanic
10:26AM 56.6516 176.8011 240° Southwest 471 542 40,000  Level FlightAware Transoceanic
10:27AM 56.5865 176.6001 239° Southwest 471 542 40,000  Level FlightAware Transoceanic
10:27AM 56.5167 176.3833 239° Southwest 475 547 40,000  Level Anchorage Center
10:28AM 56.5212 176.3999 239° Southwest 471 542 40,000  Level FlightAware Transoceanic
10:29AM 56.4316 176.1118 239° Southwest 476 548 40,000  Level FlightAware Transoceanic
10:30AM 56.3634 175.9080 239° Southwest 476 548 40,000  Level FlightAware Transoceanic
10:31AM 56.2950 175.7049 239° Southwest 476 548 40,000  Level FlightAware Transoceanic
10:31AM 56.2500 175.6500 238° Southwest 470 541 40,000  Level Anchorage Center
10:32AM 56.2262 175.5025 238° Southwest 476 548 40,000  Level FlightAware Transoceanic
10:32AM 56.2000 175.4500 246° West 480 552 40,000  Level Anchorage Center
10:33AM 56.1570 175.3009 238° Southwest 476 548 40,000  Level FlightAware Transoceanic
10:33AM 56.1167 175.2500 233° Southwest 470 541 40,000  Level Anchorage Center
10:34AM 56.1006 175.1478 238° Southwest 475 547 40,000  Level FlightAware Transoceanic
10:34AM 56.0667 175.0667 244° Southwest 480 552 40,000  Level Anchorage Center
10:35AM 56.0301 174.9445 238° Southwest 475 547 40,000  Level FlightAware Transoceanic
10:35AM 55.9833 174.8333 238° Southwest 480 552 40,000  Level Anchorage Center
10:36AM 55.9592 174.7419 238° Southwest 475 547 40,000  Level FlightAware Transoceanic
10:36AM 55.9167 174.6500 237° Southwest 480 552 40,000  Level Anchorage Center
10:37AM 55.8500 174.4333 241° Southwest 480 552 40,000  Level Anchorage Center
10:38AM 55.7667 174.2167 236° Southwest 480 552 40,000  Level Anchorage Center
10:39AM 55.7000 174.0500 235° Southwest 480 552 40,000  Level Anchorage Center
10:40AM 55.6333 173.8333 241° Southwest 490 564 40,000  Level Anchorage Center
10:41AM 55.5667 173.6500 237° Southwest 490 564 40,000  Level Anchorage Center
10:42AM 55.4833 173.4333 236° Southwest 490 564 40,000  Level Anchorage Center
10:44AM 55.3333 173.0500 236° Southwest 480 552 40,000  Level Anchorage Center
10:45AM 55.2500 172.8333 236° Southwest 490 564 40,000  Level Anchorage Center
10:46AM 55.1833 172.6667 235° Southwest 480 552 40,000  Level Anchorage Center
10:47AM 55.1167 172.4667 240° Southwest 480 552 40,000  Level Anchorage Center
10:48AM 55.0500 172.2833 238° Southwest 490 564 40,000  Level Anchorage Center
10:49AM 54.9667 172.0833 234° Southwest 480 552 40,000  Level Anchorage Center
10:50AM 54.9000 171.9167 235° Southwest 490 564 40,000  Level Anchorage Center
10:51AM 54.8333 171.7500 235° Southwest 490 564 40,100 420 Climbing Anchorage Center
10:52AM 54.7500 171.5333 236° Southwest 480 552 40,900 900 Climbing Anchorage Center
10:53AM 54.6500 171.3333 229° Southwest 490 564 41,900 840 Climbing Anchorage Center
10:54AM 54.5667 171.1333 234° Southwest 460 529 42,600 540 Climbing Anchorage Center
10:55AM 54.5167 170.9833 240° Southwest 470 541 43,000 180 Climbing Anchorage Center
10:56AM 54.4167 170.7833 229° Southwest 470 541 43,000  Level Anchorage Center
10:57AM 54.3500 170.6167 236° Southwest 480 552 43,000  Level Anchorage Center
10:58AM 54.2667 170.4167 235° Southwest 500 575 43,000  Level Anchorage Center
10:59AM 54.2000 170.2667 233° Southwest 470 541 43,000  Level Anchorage Center
11:00AM 54.1167 170.0500 237° Southwest 480 552 43,000  Level Anchorage Center
11:01AM 54.0167 169.8500 230° Southwest 480 552 43,000  Level Anchorage Center
11:02AM 53.9500 169.7000 233° Southwest 480 552 43,000  Level Anchorage Center
11:03AM 53.8667 169.5000 235° Southwest 490 564 43,000  Level Anchorage Center
11:04AM 53.8000 169.3500 233° Southwest 480 552 43,000  Level Anchorage Center
11:05AM 53.7167 169.1500 235° Southwest 500 575 43,000  Level Anchorage Center
11:06AM 53.6500 168.9833 236° Southwest 480 552 43,000  Level Anchorage Center
11:07AM 53.5833 168.7667 243° Southwest 470 541 43,000  Level Anchorage Center
11:08AM 53.5333 168.6000 243° Southwest 490 564 43,000  Level Anchorage Center
11:09AM 53.4500 168.3833 237° Southwest 490 564 43,000  Level Anchorage Center
11:10AM 53.3833 168.1833 241° Southwest 470 541 43,000  Level Anchorage Center
11:11AM 53.3333 168.0167 243° Southwest 470 541 43,000  Level Anchorage Center
11:12AM 53.2500 167.8000 237° Southwest 480 552 43,000  Level Anchorage Center
11:13AM 53.1833 167.6333 236° Southwest 480 552 43,000  Level Anchorage Center
11:16AM 53.0866 167.3579 240° Southwest  Level FlightAware Approximate
11:21AM 52.6667 166.2000 238° Southwest 473 544 43,000  Level Anchorage Center
11:23AM 52.6319 166.1029 240° Southwest  Level FlightAware Approximate
11:24AM 52.5659 165.9258 239° Southwest  Level FlightAware Approximate
11:25AM 52.4989 165.7500 238° Southwest  Level FlightAware Approximate
11:26AM 52.4313 165.5750 238° Southwest  Level FlightAware Approximate
11:27AM 52.2606 165.1421 237° Southwest 473 544 43,000  Level FlightAware Transoceanic
11:28AM 52.1920 164.9677 237° Southwest 473 544 43,000  Level FlightAware Transoceanic
11:29AM 52.1232 164.7938 237° Southwest 473 544 43,000  Level FlightAware Transoceanic
11:30AM 52.0541 164.6204 237° Southwest 473 544 43,000  Level FlightAware Transoceanic
11:31AM 51.9847 164.4476 237° Southwest 473 544 43,000  Level FlightAware Transoceanic
11:32AM 51.9151 164.2753 237° Southwest 473 544 43,000  Level FlightAware Transoceanic
11:33AM 51.8453 164.1036 237° Southwest 473 544 43,000  Level FlightAware Transoceanic
11:34AM 51.7752 163.9324 236° Southwest 473 544 43,000  Level FlightAware Transoceanic
11:35AM 51.7048 163.7617 236° Southwest 473 544 43,000  Level FlightAware Transoceanic
11:35AM 51.6500 163.6500 236° Southwest 472 543 43,000  Level Anchorage Center
11:36AM 51.6343 163.5916 236° Southwest 473 544 43,000  Level FlightAware Transoceanic
11:37AM 51.5634 163.4220 236° Southwest 473 544 43,000  Level FlightAware Transoceanic
11:38AM 51.4923 163.2529 236° Southwest 473 544 43,000  Level FlightAware Transoceanic
11:39AM 51.4210 163.0843 236° Southwest 473 544 43,000  Level FlightAware Transoceanic
11:40AM 51.3494 162.9163 236° Southwest 473 544 43,000  Level FlightAware Transoceanic
11:41AM 51.2181 162.6260 236° Southwest 472 543 43,000  Level FlightAware Transoceanic
11:42AM 51.1452 162.4572 235° Southwest 472 543 43,000  Level FlightAware Transoceanic
11:43AM 51.0721 162.2890 235° Southwest 472 543 43,000  Level FlightAware Transoceanic
11:44AM 50.9988 162.1213 235° Southwest 472 543 43,000  Level FlightAware Transoceanic
11:45AM 50.9252 161.9541 235° Southwest 472 543 43,000  Level FlightAware Transoceanic
11:46AM 50.8514 161.7874 235° Southwest 472 543 43,000  Level FlightAware Transoceanic
11:47AM 50.7774 161.6213 235° Southwest 472 543 43,000  Level FlightAware Transoceanic
11:47AM 50.7667 161.5833 235° Southwest 460 529 43,000  Level Anchorage Center
11:48AM 50.7031 161.4557 235° Southwest 472 543 43,000  Level FlightAware Transoceanic
11:49AM 50.6286 161.2906 234° Southwest 472 543 43,000  Level FlightAware Transoceanic
11:50AM 50.5538 161.1260 234° Southwest 472 543 43,000  Level FlightAware Transoceanic
11:51AM 50.4789 160.9620 234° Southwest 472 543 43,000  Level FlightAware Transoceanic
11:52AM 50.4037 160.7985 234° Southwest 472 543 43,000  Level FlightAware Transoceanic
11:53AM 50.3282 160.6355 234° Southwest 472 543 43,000  Level FlightAware Transoceanic
11:54AM 50.3219 160.6141 234° Southwest 460 529 43,000  Level FlightAware Transoceanic
11:55AM 50.2470 160.4544 234° Southwest 460 529 43,000  Level FlightAware Transoceanic
11:55AM 50.2000 160.3833 234° Southwest 449 517 43,000  Level Anchorage Center
11:56AM 50.1719 160.2951 234° Southwest 460 529 43,000  Level FlightAware Transoceanic
11:57AM 50.0966 160.1363 233° Southwest 460 529 43,000  Level FlightAware Transoceanic
11:58AM 50.0210 159.9781 233° Southwest 460 529 43,000  Level FlightAware Transoceanic
11:59AM 49.9452 159.8203 233° Southwest 460 529 43,000  Level FlightAware Transoceanic
12:00PM 49.8693 159.6631 233° Southwest 460 529 43,000  Level FlightAware Transoceanic
12:01PM 49.7863 159.4964 234° Southwest 449 517 43,000  Level FlightAware Transoceanic
12:02PM 49.7167 159.3500 233° Southwest 449 517 43,000  Level FlightAware Transoceanic
12:03PM 49.6412 159.1959 233° Southwest 449 517 43,000  Level FlightAware Transoceanic
12:04PM 49.5655 159.0422 233° Southwest 449 517 43,000  Level FlightAware Transoceanic
12:05PM 49.4896 158.8891 233° Southwest 449 517 43,000  Level FlightAware Transoceanic
12:06PM 49.4135 158.7364 232° Southwest 449 517 43,000  Level FlightAware Transoceanic
12:07PM 49.3372 158.5841 232° Southwest 449 517 43,000  Level FlightAware Transoceanic
12:08PM 49.2607 158.4324 232° Southwest 449 517 43,000  Level FlightAware Transoceanic
12:09PM 49.1839 158.2811 232° Southwest 449 517 43,000  Level FlightAware Transoceanic
12:10PM 49.1070 158.1303 232° Southwest 449 517 43,000  Level FlightAware Transoceanic
12:11PM 49.0299 157.9799 232° Southwest 449 517 43,000  Level FlightAware Transoceanic
12:12PM 48.9527 157.8301 232° Southwest 449 517 43,000  Level FlightAware Transoceanic
12:13PM 48.8752 157.6806 232° Southwest 449 517 43,000  Level FlightAware Transoceanic
12:14PM 48.7975 157.5317 232° Southwest 449 517 43,000  Level FlightAware Transoceanic
12:15PM 48.7196 157.3832 231° Southwest 449 517 43,000  Level FlightAware Transoceanic
12:16PM 48.6416 157.2352 231° Southwest 449 517 43,000  Level FlightAware Transoceanic
12:17PM 48.5633 157.0876 231° Southwest 449 517 43,000  Level FlightAware Transoceanic
12:18PM 48.4849 156.9405 231° Southwest 449 517 43,000  Level FlightAware Transoceanic
12:19PM 48.4063 156.7938 231° Southwest 449 517 43,000  Level FlightAware Transoceanic
12:20PM 48.3274 156.6476 231° Southwest 449 517 43,000  Level FlightAware Transoceanic
12:21PM 48.2485 156.5019 231° Southwest 449 517 43,000  Level FlightAware Transoceanic
12:22PM 48.1693 156.3566 231° Southwest 449 517 43,000  Level FlightAware Transoceanic
12:23PM 48.0899 156.2117 231° Southwest 449 517 43,000  Level FlightAware Transoceanic
12:24PM 48.0104 156.0673 230° Southwest 449 517 43,000  Level FlightAware Transoceanic
12:25PM 47.9307 155.9233 230° Southwest 449 517 43,000  Level FlightAware Transoceanic
12:26PM 47.8508 155.7798 230° Southwest 449 517 43,000  Level FlightAware Transoceanic
12:27PM 47.7707 155.6367 230° Southwest 449 517 43,000  Level FlightAware Transoceanic
12:28PM 47.6904 155.4941 230° Southwest 449 517 43,000  Level FlightAware Transoceanic
12:29PM 47.6100 155.3519 230° Southwest 449 517 43,000  Level FlightAware Transoceanic
12:30PM 47.5294 155.2101 230° Southwest 449 517 43,000  Level FlightAware Transoceanic
12:31PM 47.4486 155.0688 230° Southwest 449 517 43,000  Level FlightAware Transoceanic
12:32PM 47.3676 154.9279 230° Southwest 449 517 43,000  Level FlightAware Transoceanic
12:33PM 47.2865 154.7874 230° Southwest 449 517 43,000  Level FlightAware Transoceanic
12:34PM 47.2052 154.6474 229° Southwest 449 517 43,000  Level FlightAware Transoceanic
12:35PM 47.1238 154.5078 229° Southwest 449 517 43,000  Level FlightAware Transoceanic
12:36PM 47.0421 154.3686 229° Southwest 449 517 43,000  Level FlightAware Transoceanic
12:37PM 46.9603 154.2299 229° Southwest 449 517 43,000  Level FlightAware Transoceanic
12:38PM 46.8783 154.0915 229° Southwest 449 517 43,000  Level FlightAware Transoceanic
12:39PM 46.7962 153.9536 229° Southwest 449 517 43,000  Level FlightAware Transoceanic
12:40PM 46.7139 153.8161 229° Southwest 449 517 43,000  Level FlightAware Transoceanic
12:41PM 46.6314 153.6791 229° Southwest 449 517 43,000  Level FlightAware Transoceanic
12:42PM 46.5488 153.5424 229° Southwest 449 517 43,000  Level FlightAware Transoceanic
12:43PM 46.4660 153.4062 229° Southwest 449 517 43,000  Level FlightAware Transoceanic
12:44PM 46.3831 153.2704 228° Southwest 449 517 43,000  Level FlightAware Transoceanic
12:45PM 46.2999 153.1350 228° Southwest 449 517 43,000  Level FlightAware Transoceanic
12:46PM 46.2159 152.9987 228° Southwest  Level FlightAware Approximate
12:47PM 46.2150 152.9974 228° Southwest  Level FlightAware Approximate
12:48PM 46.1303 152.8622 228° Southwest  Level FlightAware Approximate
12:49PM 46.0454 152.7274 228° Southwest  Level FlightAware Approximate
12:50PM 45.9603 152.5931 228° Southwest  Level FlightAware Approximate
12:51PM 45.8751 152.4591 228° Southwest  Level FlightAware Approximate
12:52PM 45.7897 152.3256 228° Southwest  Level FlightAware Approximate
12:53PM 45.7041 152.1925 227° Southwest  Level FlightAware Approximate
12:54PM 45.6184 152.0597 227° Southwest  Level FlightAware Approximate
12:55PM 45.5326 151.9274 227° Southwest  Level FlightAware Approximate
12:56PM 45.4466 151.7955 227° Southwest  Level FlightAware Approximate
12:57PM 45.3604 151.6640 227° Southwest  Level FlightAware Approximate
12:58PM 45.2741 151.5329 227° Southwest  Level FlightAware Approximate
12:59PM 45.1876 151.4022 227° Southwest  Level FlightAware Approximate
01:00PM 45.1010 151.2718 227° Southwest  Level FlightAware Approximate
01:01PM 45.0143 151.1419 227° Southwest  Level FlightAware Approximate
01:02PM 44.9274 151.0124 227° Southwest  Level FlightAware Approximate
01:03PM 44.8403 150.8833 226° Southwest  Level FlightAware Approximate
01:04PM 44.7532 150.7545 226° Southwest  Level FlightAware Approximate
01:05PM 44.6658 150.6261 226° Southwest  Level FlightAware Approximate
01:06PM 44.5783 150.4982 226° Southwest  Level FlightAware Approximate
01:07PM 44.4907 150.3706 226° Southwest  Level FlightAware Approximate
01:08PM 44.4030 150.2434 226° Southwest  Level FlightAware Approximate
01:09PM 44.3151 150.1165 226° Southwest  Level FlightAware Approximate
01:10PM 44.2270 149.9901 226° Southwest  Level FlightAware Approximate
01:11PM 44.1388 149.8640 226° Southwest  Level FlightAware Approximate
01:12PM 44.0505 149.7384 226° Southwest  Level FlightAware Approximate
01:13PM 43.9621 149.6130 226° Southwest  Level FlightAware Approximate
01:14PM 43.8735 149.4881 225° Southwest  Level FlightAware Approximate
01:15PM 43.7847 149.3635 225° Southwest  Level FlightAware Approximate
01:16PM 43.6959 149.2393 225° Southwest  Level FlightAware Approximate
01:17PM 43.6069 149.1155 225° Southwest  Level FlightAware Approximate
01:18PM 43.5177 148.9920 225° Southwest  Level FlightAware Approximate
01:19PM 43.4285 148.8689 225° Southwest  Level FlightAware Approximate
01:20PM 43.3391 148.7462 225° Southwest  Level FlightAware Approximate
01:21PM 43.2496 148.6238 225° Southwest  Level FlightAware Approximate
01:22PM 43.1599 148.5018 225° Southwest  Level FlightAware Approximate
01:23PM 43.0701 148.3801 225° Southwest  Level FlightAware Approximate
01:24PM 42.9802 148.2588 225° Southwest  Level FlightAware Approximate
01:25PM 42.8902 148.1379 225° Southwest  Level FlightAware Approximate
01:26PM 42.8000 148.0173 224° Southwest  Level FlightAware Approximate
01:27PM 42.7097 147.8970 224° Southwest  Level FlightAware Approximate
01:28PM 42.6193 147.7771 224° Southwest  Level FlightAware Approximate
01:29PM 42.5287 147.6576 224° Southwest  Level FlightAware Approximate
01:30PM 42.4380 147.5384 224° Southwest  Level FlightAware Approximate
01:31PM 42.3476 147.4190 225° Southwest  Level FlightAware Approximate
01:32PM 42.2576 147.2992 225° Southwest  Level FlightAware Approximate
01:33PM 42.1675 147.1798 225° Southwest  Level FlightAware Approximate
01:34PM 42.0772 147.0607 224° Southwest  Level FlightAware Approximate
01:35PM 41.9869 146.9419 224° Southwest  Level FlightAware Approximate
01:36PM 41.8962 146.8237 224° Southwest  Level FlightAware Approximate
01:37PM 41.8049 146.7066 224° Southwest  Level FlightAware Approximate
01:38PM 41.7135 146.5898 224° Southwest  Level FlightAware Approximate
01:39PM 41.6219 146.4733 224° Southwest  Level FlightAware Approximate
01:40PM 41.5303 146.3572 223° Southwest  Level FlightAware Approximate
01:41PM 41.4385 146.2414 223° Southwest  Level FlightAware Approximate
01:42PM 41.3466 146.1260 223° Southwest  Level FlightAware Approximate
01:43PM 41.2546 146.0108 223° Southwest  Level FlightAware Approximate
01:44PM 41.1624 145.8960 223° Southwest  Level FlightAware Approximate
01:45PM 41.0702 145.7815 223° Southwest  Level FlightAware Approximate
01:46PM 40.9778 145.6673 223° Southwest  Level FlightAware Approximate
01:47PM 40.8853 145.5535 223° Southwest  Level FlightAware Approximate
01:48PM 40.7928 145.4400 223° Southwest  Level FlightAware Approximate
01:49PM 40.7001 145.3267 223° Southwest  Level FlightAware Approximate
01:50PM 40.6073 145.2138 223° Southwest  Level FlightAware Approximate
01:51PM 40.5144 145.1013 223° Southwest  Level FlightAware Approximate
01:52PM 40.4213 144.9890 223° Southwest  Level FlightAware Approximate
01:53PM 40.3529 144.8499 238° Southwest  Level FlightAware Approximate
01:54PM 40.2856 144.7098 238° Southwest  Level FlightAware Approximate
01:55PM 40.2182 144.5699 238° Southwest  Level FlightAware Approximate
01:56PM 40.1506 144.4302 238° Southwest  Level FlightAware Approximate
01:57PM 40.0828 144.2909 238° Southwest  Level FlightAware Approximate
01:58PM 40.0149 144.1518 237° Southwest  Level FlightAware Approximate
01:59PM 39.9467 144.0131 237° Southwest  Level FlightAware Approximate
02:00PM 39.8785 143.8746 237° Southwest  Level FlightAware Approximate
02:01PM 39.8106 143.7358 238° Southwest  Level FlightAware Approximate
02:02PM 39.7439 143.5963 238° Southwest  Level FlightAware Approximate
02:03PM 39.6769 143.4572 238° Southwest  Level FlightAware Approximate
02:04PM 39.6098 143.3182 238° Southwest  Level FlightAware Approximate
02:05PM 39.5425 143.1796 238° Southwest  Level FlightAware Approximate
02:06PM 39.4750 143.0412 238° Southwest  Level FlightAware Approximate
02:07PM 39.4074 142.9031 238° Southwest  Level FlightAware Approximate
02:08PM 39.3396 142.7652 238° Southwest  Level FlightAware Approximate
02:09PM 39.2717 142.6277 237° Southwest  Level FlightAware Approximate
02:10PM 39.2010 142.4929 230° Southwest  Level FlightAware Approximate
02:11PM 39.1189 142.3690 230° Southwest  Level FlightAware Approximate
02:12PM 39.0368 142.2454 229° Southwest  Level FlightAware Approximate
02:13PM 38.9546 142.1221 229° Southwest  Level FlightAware Approximate
02:14PM 38.8722 141.9991 229° Southwest  Level FlightAware Approximate
02:15PM 38.7897 141.8764 229° Southwest  Level FlightAware Approximate
02:16PM 38.7070 141.7539 229° Southwest  Level FlightAware Approximate
02:17PM 38.6242 141.6317 229° Southwest  Level FlightAware Approximate
02:18PM 38.5414 141.5099 229° Southwest  Level FlightAware Approximate
02:19PM 38.4583 141.3883 229° Southwest  Level FlightAware Approximate
02:20PM 38.3752 141.2670 229° Southwest  Level FlightAware Approximate
02:21PM 38.2919 141.1459 229° Southwest  Level FlightAware Approximate
02:22PM 38.2085 141.0251 229° Southwest  Level FlightAware Approximate
02:23PM 38.1317 140.9008 262° West  Level FlightAware Approximate
02:24PM 38.1150 140.7417 262° West  Level FlightAware Approximate
02:25PM 38.0981 140.5826 262° West  Level FlightAware Approximate
02:26PM 38.0807 140.4237 263° West  Level FlightAware Approximate
02:27PM 38.0649 140.2645 263° West  Level FlightAware Approximate
02:28PM 38.0503 140.1052 263° West  Level FlightAware Approximate
02:29PM 38.0353 139.9460 263° West  Level FlightAware Approximate
02:30PM 38.0202 139.7868 263° West  Level FlightAware Approximate
02:31PM 38.0044 139.6278 263° West  Level FlightAware Approximate
02:32PM 37.9883 139.4689 263° West  Level FlightAware Approximate
02:33PM 37.9719 139.3100 263° West  Level FlightAware Approximate
02:34PM 37.9554 139.1512 263° West  Level FlightAware Approximate
02:35PM 37.8996 139.0123 234° Southwest  Level FlightAware Approximate
02:36PM 37.8252 138.8831 234° Southwest  Level FlightAware Approximate
02:37PM 37.7506 138.7541 234° Southwest  Level FlightAware Approximate
02:38PM 37.6759 138.6254 234° Southwest  Level FlightAware Approximate
02:39PM 37.6010 138.4970 234° Southwest  Level FlightAware Approximate
02:40PM 37.5275 138.3675 235° Southwest  Level FlightAware Approximate
02:41PM 37.4542 138.2378 235° Southwest  Level FlightAware Approximate
02:42PM 37.3808 138.1084 234° Southwest  Level FlightAware Approximate
02:43PM 37.3072 137.9793 234° Southwest  Level FlightAware Approximate
02:44PM 37.2320 137.8518 234° Southwest  Level FlightAware Approximate
02:45PM 37.1574 137.7240 233° Southwest  Level FlightAware Approximate
02:46PM 37.0806 137.5982 233° Southwest  Level FlightAware Approximate
02:47PM 37.0037 137.4727 233° Southwest  Level FlightAware Approximate
02:48PM 36.9342 137.3407 237° Southwest  Level FlightAware Approximate
02:49PM 36.8650 137.2086 237° Southwest  Level FlightAware Approximate
02:50PM 36.7934 137.0788 232° Southwest  Level FlightAware Approximate
02:51PM 36.7163 136.9540 232° Southwest  Level FlightAware Approximate
02:52PM 36.6390 136.8294 232° Southwest  Level FlightAware Approximate
02:53PM 36.5630 136.7038 234° Southwest  Level FlightAware Approximate
02:54PM 36.4883 136.5771 234° Southwest  Level FlightAware Approximate
02:55PM 36.4134 136.4507 234° Southwest  Level FlightAware Approximate
02:56PM 36.3616 136.3101 253° West  Level FlightAware Approximate
02:57PM 36.3252 136.1599 253° West  Level FlightAware Approximate
02:58PM 36.2886 136.0099 253° West  Level FlightAware Approximate
02:59PM 36.2519 135.8601 253° West  Level FlightAware Approximate
03:00PM 36.2149 135.7104 253° West  Level FlightAware Approximate
03:01PM 36.1778 135.5608 253° West  Level FlightAware Approximate
03:02PM 36.1406 135.4113 253° West  Level FlightAware Approximate
03:03PM 36.1033 135.2619 253° West  Level FlightAware Approximate
03:04PM 36.0658 135.1127 253° West  Level FlightAware Approximate
03:05PM 36.0286 134.9635 253° West  Level FlightAware Approximate
03:06PM 35.9914 134.8143 253° West  Level FlightAware Approximate
03:07PM 35.9541 134.6652 253° West  Level FlightAware Approximate
03:08PM 35.9167 134.5162 269° West  Level FlightAware Approximate
03:09PM 35.9149 134.3603 269° West  Level FlightAware Approximate
03:10PM 35.9130 134.2044 269° West  Level FlightAware Approximate
03:11PM 35.9108 134.0485 269° West  Level FlightAware Approximate
03:12PM 35.9085 133.8926 269° West  Level FlightAware Approximate
03:13PM 35.9059 133.7367 269° West  Level FlightAware Approximate
03:14PM 35.9032 133.5808 269° West  Level FlightAware Approximate
03:15PM 35.9002 133.4249 269° West  Level FlightAware Approximate
03:16PM 35.8970 133.2691 269° West  Level FlightAware Approximate
03:17PM 35.8937 133.1133 269° West  Level FlightAware Approximate
03:18PM 35.8901 132.9574 268° West  Level FlightAware Approximate
03:19PM 35.8864 132.8016 268° West  Level FlightAware Approximate
03:20PM 35.8824 132.6458 268° West  Level FlightAware Approximate
03:21PM 35.8783 132.4900 268° West  Level FlightAware Approximate
03:22PM 35.8739 132.3343 268° West  Level FlightAware Approximate
03:23PM 35.8693 132.1785 268° West  Level FlightAware Approximate
03:24PM 35.8646 132.0228 268° West  Level FlightAware Approximate
03:25PM 35.8596 131.8671 268° West  Level FlightAware Approximate
03:26PM 35.8544 131.7114 268° West  Level FlightAware Approximate
03:27PM 35.8491 131.5557 268° West  Level FlightAware Approximate
03:28PM 35.8435 131.4001 268° West  Level FlightAware Approximate
03:29PM 35.8377 131.2444 267° West  Level FlightAware Approximate
03:30PM 35.8317 131.0888 267° West  Level FlightAware Approximate
03:31PM 35.8256 130.9333 267° West  Level FlightAware Approximate
03:32PM 35.8192 130.7777 267° West  Level FlightAware Approximate
03:33PM 35.8228 130.6227 280° West  Level FlightAware Approximate
03:34PM 35.8443 130.4692 280° West  Level FlightAware Approximate
03:35PM 35.8656 130.3156 280° West  Level FlightAware Approximate
03:36PM 35.8867 130.1620 280° West  Level FlightAware Approximate
03:37PM 35.9076 130.0082 280° West  Level FlightAware Approximate
03:38PM 35.9283 129.8544 279° West  Level FlightAware Approximate
03:39PM 35.9446 129.6997 277° West  Level FlightAware Approximate
03:40PM 35.9593 129.5448 277° West  Level FlightAware Approximate
03:41PM 36.0041 129.4046 307° West  Level FlightAware Approximate
03:42PM 36.0795 129.2793 307° West  Level FlightAware Approximate
03:43PM 36.1547 129.1537 307° West  Level FlightAware Approximate
03:44PM 36.2295 129.0276 305° West  Level FlightAware Approximate
03:45PM 36.3008 128.8984 302° West  Level FlightAware Approximate
03:46PM 36.3719 128.7690 307° West  Level FlightAware Approximate
03:47PM 36.4474 128.6433 307° West  Level FlightAware Approximate
03:48PM 36.5145 128.5107 298° West  Level FlightAware Approximate
03:49PM 36.5824 128.3784 305° West  Level FlightAware Approximate
03:50PM 36.6554 128.2503 310° West  Level FlightAware Approximate
03:51PM 36.7310 128.1242 305° West  Level FlightAware Approximate
03:52PM 36.8033 127.9950 310° West  Level FlightAware Approximate
03:53PM 36.8800 127.8697 306° West  Level FlightAware Approximate
03:54PM 36.9541 127.7418 306° West  Level FlightAware Approximate
03:55PM 37.0252 127.6115 296° West  Level FlightAware Approximate
03:56PM 37.0806 127.4693 296° West  Level FlightAware Approximate
03:57PM 37.1357 127.3268 295° West  Level FlightAware Approximate
03:58PM 37.1882 127.1826 295° West  Level FlightAware Approximate
03:59PM 37.2464 127.0420 298° West  Level FlightAware Approximate
04:00PM 37.3061 126.9021 298° West  Level FlightAware Approximate
04:01PM 37.3647 126.7614 298° West  Level FlightAware Approximate
04:02PM 37.4213 126.6194 293° West  Level FlightAware Approximate
04:03PM 37.4702 126.4727 293° West  Level FlightAware Approximate
04:04PM 37.4691 126.4505 293° West  Level Estimated
04:05PM 37.4691 126.4505 293° West  Level Estimated
04:06PM 37.4691 126.4505 293° West  Level Estimated
04:07PM 37.4691 126.4505 293° West  Level Estimated
04:08PM 37.4691 126.4505 293° West  Level Estimated
04:09PM 37.4691 126.4505 293° West  Level Estimated
04:10PM 37.4691 126.4505 293° West  Level Estimated
04:11PM 37.4691 126.4505 293° West  Level Estimated
04:12PM 37.4691 126.4505 293° West  Level Estimated
04:13PM 37.4691 126.4505 293° West  Level Estimated
04:14PM 37.4691 126.4505 293° West  Level Estimated